Time;durP1;ratioP1;P1;durP2;ratioP2;P2;SDS_P1;SDS_P2;PMS_P1;PMS_P2;Temp;Humidity;BMP_temperature;BMP_pressure;BME280_temperature;BME280_humidity;BME280_pressure;Samples;Min_cycle;Max_cycle;Signal;HPM_P1;HPM_P2
2024/01/25 00:01:45;;;;;;;0.40;0.40;;;;;;;6.64;100.00;100477.34;5039027;28;20048;-59
2024/01/25 00:04:12;;;;;;;0.40;0.40;;;;;;;6.66;100.00;100469.97;5042030;28;20041;-59
2024/01/25 00:06:39;;;;;;;0.40;0.40;;;;;;;6.84;100.00;100467.75;5040741;28;20505;-59
2024/01/25 00:09:08;;;;;;;0.40;0.40;;;;;;;6.68;100.00;100471.44;5041926;28;20048;-59
2024/01/25 00:11:35;;;;;;;0.35;0.35;;;;;;;6.76;100.00;100475.84;5042626;28;20076;-59
2024/01/25 00:14:02;;;;;;;0.40;0.40;;;;;;;6.70;100.00;100469.44;5041330;28;20199;-59
2024/01/25 00:16:30;;;;;;;0.40;0.40;;;;;;;6.81;100.00;100468.13;5034971;28;20066;-58
2024/01/25 00:18:58;;;;;;;0.30;0.30;;;;;;;6.78;100.00;100457.84;5044179;28;20239;-58
2024/01/25 00:21:25;;;;;;;0.50;0.50;;;;;;;6.73;100.00;100454.91;5038728;28;20057;-58
2024/01/25 00:23:52;;;;;;;0.40;0.40;;;;;;;6.79;100.00;100463.97;5041963;28;20053;-58
2024/01/25 00:26:20;;;;;;;0.30;0.30;;;;;;;6.69;100.00;100459.81;5041907;28;20499;-59
2024/01/25 00:28:47;;;;;;;0.40;0.40;;;;;;;6.71;100.00;100451.59;5044209;28;20041;-58
2024/01/25 00:31:14;;;;;;;0.40;0.40;;;;;;;6.80;100.00;100449.66;5041513;28;20094;-58
2024/01/25 00:33:41;;;;;;;0.32;0.32;;;;;;;6.85;100.00;100447.25;5043078;28;20067;-58
2024/01/25 00:36:10;;;;;;;0.30;0.30;;;;;;;6.91;100.00;100446.50;5038423;28;20092;-58
2024/01/25 00:38:37;;;;;;;0.50;0.50;;;;;;;6.87;100.00;100445.25;5038239;28;20041;-59
2024/01/25 00:41:05;;;;;;;0.40;0.40;;;;;;;6.89;100.00;100451.22;5039771;28;20052;-58
2024/01/25 00:43:34;;;;;;;0.40;0.40;;;;;;;6.95;100.00;100458.44;5021995;28;20106;-59
2024/01/25 00:46:03;;;;;;;0.40;0.40;;;;;;;6.82;100.00;100459.13;5040005;28;20065;-58
2024/01/25 00:48:30;;;;;;;0.40;0.40;;;;;;;6.84;100.00;100461.59;5042982;28;20041;-58
2024/01/25 00:50:58;;;;;;;0.30;0.30;;;;;;;6.95;100.00;100457.63;5041029;28;20558;-59
2024/01/25 00:53:26;;;;;;;0.40;0.40;;;;;;;6.93;100.00;100455.13;5041442;28;20040;-57
2024/01/25 00:55:54;;;;;;;0.30;0.30;;;;;;;6.79;100.00;100453.31;5040211;28;20114;-58
2024/01/25 00:58:22;;;;;;;0.40;0.40;;;;;;;6.70;100.00;100460.63;5041224;28;20223;-58
2024/01/25 01:00:53;;;;;;;0.30;0.30;;;;;;;6.61;100.00;100461.72;5041769;28;20202;-58
2024/01/25 01:03:20;;;;;;;0.40;0.40;;;;;;;6.54;100.00;100467.00;5040006;28;20041;-58
2024/01/25 01:05:48;;;;;;;0.30;0.30;;;;;;;6.56;100.00;100464.94;5040299;28;20114;-58
2024/01/25 01:08:15;;;;;;;0.30;0.30;;;;;;;6.43;100.00;100467.44;5024075;28;20052;-57
2024/01/25 01:10:43;;;;;;;0.40;0.40;;;;;;;6.23;100.00;100470.66;5041989;28;20911;-58
2024/01/25 01:13:10;;;;;;;0.40;0.40;;;;;;;6.15;100.00;100473.44;5039541;28;20614;-58
2024/01/25 01:15:37;;;;;;;0.30;0.30;;;;;;;6.11;100.00;100482.78;5039586;28;20044;-57
2024/01/25 01:18:06;;;;;;;0.30;0.30;;;;;;;5.98;100.00;100482.59;5041954;28;20049;-58
2024/01/25 01:20:33;;;;;;;0.40;0.40;;;;;;;5.83;100.00;100488.69;5046977;28;20060;-58
2024/01/25 01:23:00;;;;;;;0.47;0.47;;;;;;;5.79;100.00;100489.22;5040533;28;20456;-58
2024/01/25 01:25:27;;;;;;;0.30;0.30;;;;;;;5.82;100.00;100487.03;5040592;28;20503;-58
2024/01/25 01:27:54;;;;;;;0.50;0.50;;;;;;;5.80;100.00;100497.03;5039986;28;20057;-58
2024/01/25 01:30:21;;;;;;;0.40;0.40;;;;;;;5.81;100.00;100489.88;5035195;28;20045;-58
2024/01/25 01:32:48;;;;;;;0.40;0.40;;;;;;;5.95;100.00;100478.47;5041215;28;20082;-58
2024/01/25 01:35:17;;;;;;;0.50;0.50;;;;;;;6.08;100.00;100485.00;5035791;28;20037;-58
2024/01/25 01:37:44;;;;;;;0.40;0.40;;;;;;;6.29;100.00;100476.25;5042631;28;20100;-59
2024/01/25 01:40:12;;;;;;;0.40;0.40;;;;;;;6.38;100.00;100493.81;5045647;28;20053;-58
2024/01/25 01:42:39;;;;;;;0.50;0.50;;;;;;;6.43;100.00;100491.41;5025552;28;20045;-58
2024/01/25 01:45:07;;;;;;;0.30;0.30;;;;;;;6.49;100.00;100488.03;5042868;28;20048;-58
2024/01/25 01:47:34;;;;;;;0.43;0.43;;;;;;;6.53;100.00;100491.97;5041509;28;20107;-58
2024/01/25 01:50:02;;;;;;;0.38;0.38;;;;;;;6.61;100.00;100491.03;5042476;28;20045;-58
2024/01/25 01:52:31;;;;;;;0.47;0.47;;;;;;;6.61;100.00;100494.50;5044534;28;20049;-58
2024/01/25 01:54:58;;;;;;;0.35;0.35;;;;;;;6.59;100.00;100496.56;5044484;28;20049;-59
2024/01/25 01:57:25;;;;;;;0.40;0.40;;;;;;;6.65;100.00;100501.13;5029229;28;20044;-58
2024/01/25 01:59:52;;;;;;;0.38;0.38;;;;;;;6.73;100.00;100496.72;5023653;28;20057;-59
2024/01/25 02:02:19;;;;;;;0.40;0.40;;;;;;;6.70;100.00;100501.41;5038355;28;20036;-59
2024/01/25 02:04:46;;;;;;;0.30;0.30;;;;;;;6.69;100.00;100505.09;5042334;28;20148;-58
2024/01/25 02:07:14;;;;;;;0.40;0.40;;;;;;;6.73;100.00;100499.38;5043966;28;20723;-58
2024/01/25 02:09:42;;;;;;;0.40;0.40;;;;;;;6.78;100.00;100507.66;5029438;28;20604;-58
2024/01/25 02:12:09;;;;;;;0.40;0.40;;;;;;;6.84;100.00;100517.53;5044435;28;20081;-58
2024/01/25 02:14:36;;;;;;;0.32;0.32;;;;;;;6.81;100.00;100515.25;5045908;28;20456;-58
2024/01/25 02:17:04;;;;;;;0.30;0.30;;;;;;;6.84;100.00;100517.53;5045379;28;20073;-58
2024/01/25 02:19:31;;;;;;;0.43;0.43;;;;;;;6.82;100.00;100517.75;5025369;28;20052;-59
2024/01/25 02:21:58;;;;;;;0.20;0.20;;;;;;;6.89;100.00;100523.16;5044984;28;20045;-58
2024/01/25 02:24:26;;;;;;;0.40;0.40;;;;;;;6.79;100.00;100522.59;5045570;28;20468;-58
2024/01/25 02:26:53;;;;;;;0.40;0.40;;;;;;;6.81;100.00;100520.59;5038134;28;20457;-59
2024/01/25 02:29:20;;;;;;;0.30;0.30;;;;;;;6.82;100.00;100525.75;5044756;28;20118;-58
2024/01/25 02:31:48;;;;;;;0.40;0.40;;;;;;;6.82;100.00;100523.09;5043984;28;22233;-59
2024/01/25 02:34:15;;;;;;;0.40;0.40;;;;;;;6.81;100.00;100517.94;5045034;28;20033;-58
2024/01/25 02:36:42;;;;;;;0.40;0.40;;;;;;;6.90;100.00;100524.81;5043932;28;20149;-58
2024/01/25 02:39:09;;;;;;;0.35;0.35;;;;;;;6.87;100.00;100518.00;5043528;28;20049;-58
2024/01/25 02:41:37;;;;;;;0.30;0.30;;;;;;;6.93;100.00;100524.44;5044279;28;20037;-59
2024/01/25 02:44:05;;;;;;;0.28;0.28;;;;;;;6.95;100.00;100524.25;5044073;28;20072;-58
2024/01/25 02:46:32;;;;;;;0.40;0.40;;;;;;;6.89;100.00;100520.50;5025227;28;20538;-59
2024/01/25 02:48:59;;;;;;;0.50;0.50;;;;;;;6.89;100.00;100517.84;5042565;28;20053;-58
2024/01/25 02:51:26;;;;;;;0.40;0.40;;;;;;;6.85;100.00;100513.88;5038355;28;20056;-58
2024/01/25 02:53:53;;;;;;;0.30;0.30;;;;;;;6.85;100.00;100516.56;5043752;28;20174;-59
2024/01/25 02:56:20;;;;;;;0.40;0.40;;;;;;;6.82;100.00;100522.25;5040933;28;20086;-59
2024/01/25 02:58:49;;;;;;;0.40;0.40;;;;;;;6.80;100.00;100530.44;5022374;28;20075;-58
2024/01/25 03:01:16;;;;;;;0.40;0.40;;;;;;;6.73;100.00;100534.03;5040884;28;20048;-59
2024/01/25 03:03:43;;;;;;;0.40;0.40;;;;;;;6.78;100.00;100526.28;5044255;28;20045;-58
2024/01/25 03:06:10;;;;;;;0.40;0.40;;;;;;;6.85;100.00;100525.38;5043168;28;20127;-59
2024/01/25 03:08:37;;;;;;;0.40;0.40;;;;;;;6.82;100.00;100527.59;5046473;28;20094;-58
2024/01/25 03:11:05;;;;;;;0.30;0.30;;;;;;;6.75;100.00;100526.69;5041755;28;20455;-58
2024/01/25 03:13:34;;;;;;;0.30;0.30;;;;;;;6.71;100.00;100531.53;5044896;28;20057;-58
2024/01/25 03:16:02;;;;;;;0.40;0.40;;;;;;;6.63;100.00;100534.31;5042980;28;20041;-58
2024/01/25 03:18:29;;;;;;;0.30;0.30;;;;;;;6.59;100.00;100523.22;5044156;28;20292;-59
2024/01/25 03:20:56;;;;;;;0.30;0.30;;;;;;;6.57;100.00;100530.53;5040773;28;20248;-60
2024/01/25 03:23:23;;;;;;;0.20;0.20;;;;;;;6.53;100.00;100523.94;5037694;28;20348;-59
2024/01/25 03:25:50;;;;;;;0.35;0.35;;;;;;;6.56;100.00;100512.91;5037862;28;20076;-59
2024/01/25 03:28:18;;;;;;;0.25;0.25;;;;;;;6.54;100.00;100528.25;5043775;28;20281;-59
2024/01/25 03:30:45;;;;;;;0.30;0.30;;;;;;;6.57;100.00;100527.88;5026471;28;20041;-59
2024/01/25 03:33:14;;;;;;;0.40;0.40;;;;;;;6.56;100.00;100520.06;5043689;28;20060;-59
2024/01/25 03:35:41;;;;;;;0.40;0.40;;;;;;;6.53;100.00;100531.09;5023355;28;20140;-59
2024/01/25 03:38:08;;;;;;;0.32;0.32;;;;;;;6.59;100.00;100530.34;5038412;28;20041;-59
2024/01/25 03:40:35;;;;;;;0.30;0.30;;;;;;;6.47;100.00;100520.16;5041300;28;20041;-60
2024/01/25 03:43:02;;;;;;;0.30;0.30;;;;;;;6.52;100.00;100524.94;5042393;28;20507;-59
2024/01/25 03:45:30;;;;;;;0.25;0.25;;;;;;;6.53;100.00;100529.25;5046634;28;20064;-59
2024/01/25 03:47:57;;;;;;;0.40;0.40;;;;;;;6.29;100.00;100524.19;5042269;28;20048;-60
2024/01/25 03:50:25;;;;;;;0.40;0.40;;;;;;;6.28;100.00;100527.88;5043520;28;20048;-59
2024/01/25 03:52:52;;;;;;;0.35;0.35;;;;;;;6.27;100.00;100524.41;5044117;28;20418;-59
2024/01/25 03:55:19;;;;;;;0.40;0.40;;;;;;;6.13;100.00;100531.34;5045329;28;20467;-60
2024/01/25 03:57:46;;;;;;;0.40;0.40;;;;;;;6.20;100.00;100528.78;5041267;28;20048;-59
2024/01/25 04:00:14;;;;;;;0.50;0.50;;;;;;;6.27;100.00;100529.72;5042844;28;20118;-60
2024/01/25 04:02:41;;;;;;;0.40;0.40;;;;;;;6.25;100.00;100531.72;5043037;28;20044;-60
2024/01/25 04:05:08;;;;;;;0.40;0.40;;;;;;;6.07;100.00;100529.41;5041927;28;20457;-60
2024/01/25 04:07:37;;;;;;;0.40;0.40;;;;;;;6.12;100.00;100527.03;5042851;28;20072;-60
2024/01/25 04:10:04;;;;;;;0.40;0.40;;;;;;;6.14;100.00;100518.84;5043221;28;20048;-60
2024/01/25 04:12:33;;;;;;;0.40;0.40;;;;;;;5.99;100.00;100526.81;5041981;28;20048;-59
2024/01/25 04:15:00;;;;;;;0.32;0.32;;;;;;;5.98;100.00;100525.16;5043028;28;20041;-59
2024/01/25 04:17:27;;;;;;;0.30;0.30;;;;;;;5.98;100.00;100522.50;5042609;28;20057;-59
2024/01/25 04:19:54;;;;;;;0.40;0.40;;;;;;;5.97;100.00;100534.19;5042202;28;20080;-59
2024/01/25 04:22:21;;;;;;;0.30;0.30;;;;;;;5.91;100.00;100540.16;5040899;28;20051;-59
2024/01/25 04:24:50;;;;;;;0.40;0.40;;;;;;;5.74;100.00;100545.66;5030709;28;20132;-59
2024/01/25 04:27:17;;;;;;;0.40;0.40;;;;;;;5.74;100.00;100550.97;5043103;28;20431;-59
2024/01/25 04:29:44;;;;;;;0.40;0.40;;;;;;;5.70;100.00;100554.97;5042354;28;20079;-60
2024/01/25 04:32:11;;;;;;;0.40;0.40;;;;;;;5.74;100.00;100550.97;5025102;28;20072;-59
2024/01/25 04:34:38;;;;;;;0.45;0.45;;;;;;;5.80;100.00;100554.72;5042069;28;20052;-59
2024/01/25 04:37:05;;;;;;;0.40;0.40;;;;;;;5.82;100.00;100564.19;5040188;28;20072;-59
2024/01/25 04:39:32;;;;;;;0.30;0.30;;;;;;;5.96;100.00;100569.75;5042152;28;20462;-58
2024/01/25 04:42:00;;;;;;;0.40;0.40;;;;;;;6.00;100.00;100571.06;5040082;28;20520;-58
2024/01/25 04:44:28;;;;;;;0.30;0.30;;;;;;;6.03;100.00;100576.03;5019058;28;20052;-59
2024/01/25 04:46:55;;;;;;;0.40;0.40;;;;;;;6.02;100.00;100569.88;5025181;28;20122;-58
2024/01/25 04:49:22;;;;;;;0.40;0.40;;;;;;;6.08;100.00;100583.47;5042139;28;20412;-58
2024/01/25 04:51:49;;;;;;;0.50;0.50;;;;;;;6.11;100.00;100583.94;5041494;28;20060;-58
2024/01/25 04:54:16;;;;;;;0.40;0.40;;;;;;;6.19;100.00;100593.66;5037426;28;20048;-58
2024/01/25 04:56:43;;;;;;;0.40;0.40;;;;;;;6.20;100.00;100587.34;5043780;28;20045;-58
2024/01/25 04:59:11;;;;;;;0.30;0.30;;;;;;;6.16;100.00;100589.53;5024840;28;20549;-58
2024/01/25 05:01:39;;;;;;;0.50;0.50;;;;;;;6.13;100.00;100587.25;5038665;28;20033;-59
2024/01/25 05:04:06;;;;;;;0.40;0.40;;;;;;;6.05;100.00;100584.66;5041824;28;20041;-58
2024/01/25 05:06:33;;;;;;;0.35;0.35;;;;;;;6.31;100.00;100588.75;5038402;28;20046;-59
2024/01/25 05:09:00;;;;;;;0.25;0.25;;;;;;;6.13;100.00;100581.91;5042748;28;20069;-59
2024/01/25 05:11:27;;;;;;;0.30;0.30;;;;;;;6.08;100.00;100578.97;5041395;28;20040;-58
2024/01/25 05:13:54;;;;;;;0.30;0.30;;;;;;;5.96;100.00;100580.41;5042248;28;20439;-58
2024/01/25 05:16:22;;;;;;;0.40;0.40;;;;;;;5.77;100.00;100585.19;5039622;28;20072;-58
2024/01/25 05:18:49;;;;;;;0.50;0.50;;;;;;;5.76;100.00;100586.19;5040333;28;20570;-58
2024/01/25 05:21:16;;;;;;;0.30;0.30;;;;;;;5.59;100.00;100589.94;5038259;28;20119;-58
2024/01/25 05:23:44;;;;;;;0.40;0.40;;;;;;;5.53;100.00;100585.34;5042562;28;20049;-58
2024/01/25 05:26:11;;;;;;;0.50;0.50;;;;;;;5.56;100.00;100590.31;5023180;28;20072;-58
2024/01/25 05:28:38;;;;;;;0.47;0.47;;;;;;;5.50;100.00;100585.72;5042121;28;20503;-58
2024/01/25 05:31:09;;;;;;;0.45;0.45;;;;;;;5.50;100.00;100580.41;5032576;28;20044;-59
2024/01/25 05:33:37;;;;;;;0.50;0.50;;;;;;;5.41;100.00;100577.75;5024686;28;20045;-59
2024/01/25 05:36:05;;;;;;;0.50;0.50;;;;;;;5.35;100.00;100581.13;5040737;28;20059;-59
2024/01/25 05:38:32;;;;;;;0.40;0.40;;;;;;;5.35;100.00;100583.81;5040740;28;20057;-59
2024/01/25 05:40:59;;;;;;;0.40;0.40;;;;;;;5.38;100.00;100586.09;5041113;28;20052;-59
2024/01/25 05:43:27;;;;;;;0.40;0.40;;;;;;;5.29;100.00;100588.97;5033222;28;20052;-59
2024/01/25 05:45:53;;;;;;;0.50;0.50;;;;;;;5.20;100.00;100577.56;5039944;28;20049;-59
2024/01/25 05:48:21;;;;;;;0.30;0.30;;;;;;;5.24;100.00;100591.34;5023507;28;20049;-59
2024/01/25 05:50:50;;;;;;;0.50;0.50;;;;;;;5.24;100.00;100602.81;5041884;28;20045;-59
2024/01/25 05:53:19;;;;;;;0.40;0.40;;;;;;;5.22;100.00;100593.31;5038234;28;20053;-59
2024/01/25 05:55:46;;;;;;;0.50;0.50;;;;;;;5.24;100.00;100596.66;5038951;28;20045;-59
2024/01/25 05:58:13;;;;;;;0.50;0.50;;;;;;;5.23;100.00;100595.81;5041119;28;20041;-59
2024/01/25 06:00:40;;;;;;;0.45;0.45;;;;;;;5.12;100.00;100612.19;5036529;28;20170;-59
2024/01/25 06:03:07;;;;;;;0.50;0.50;;;;;;;5.12;100.00;100609.53;5037888;28;20134;-59
2024/01/25 06:05:34;;;;;;;0.40;0.40;;;;;;;5.16;100.00;100622.25;5042564;28;20045;-59
2024/01/25 06:08:03;;;;;;;0.50;0.50;;;;;;;5.03;100.00;100616.69;5036134;28;20065;-59
2024/01/25 06:10:30;;;;;;;0.50;0.50;;;;;;;4.93;100.00;100614.22;5042013;28;20057;-59
2024/01/25 06:12:57;;;;;;;0.50;0.50;;;;;;;4.73;100.00;100615.63;5040114;28;20221;-59
2024/01/25 06:15:27;;;;;;;0.50;0.50;;;;;;;4.56;100.00;100619.31;5040698;28;20136;-59
2024/01/25 06:17:54;;;;;;;0.45;0.45;;;;;;;4.47;100.00;100616.69;5018644;28;20061;-59
2024/01/25 06:20:21;;;;;;;0.50;0.50;;;;;;;4.45;100.00;100612.53;5036333;28;20501;-58
2024/01/25 06:22:48;;;;;;;0.40;0.40;;;;;;;4.59;100.00;100613.66;5038786;28;20126;-59
2024/01/25 06:25:16;;;;;;;0.50;0.50;;;;;;;4.48;100.00;100620.97;5039797;28;20057;-59
2024/01/25 06:27:44;;;;;;;0.50;0.50;;;;;;;4.50;100.00;100626.13;5026664;28;20446;-59
2024/01/25 06:30:12;;;;;;;0.50;0.50;;;;;;;4.48;100.00;100626.28;5050028;28;20127;-59
2024/01/25 06:32:39;;;;;;;0.50;0.50;;;;;;;4.49;100.00;100624.47;5043641;28;20087;-59
2024/01/25 06:35:07;;;;;;;0.50;0.50;;;;;;;4.22;100.00;100618.53;5043702;28;20131;-59
2024/01/25 06:37:34;;;;;;;0.50;0.50;;;;;;;4.21;100.00;100622.16;5026165;28;20044;-59
2024/01/25 06:40:02;;;;;;;0.50;0.50;;;;;;;4.24;100.00;100628.97;5042519;28;20254;-62
2024/01/25 06:42:31;;;;;;;0.50;0.50;;;;;;;4.35;100.00;100631.31;5043267;28;20051;-59
2024/01/25 06:44:58;;;;;;;0.47;0.47;;;;;;;3.97;100.00;100640.75;5043941;28;20052;-59
2024/01/25 06:47:26;;;;;;;0.60;0.60;;;;;;;4.08;100.00;100645.72;5045014;28;20047;-59
2024/01/25 06:49:53;;;;;;;0.50;0.50;;;;;;;4.10;100.00;100647.22;5045391;28;20184;-57
2024/01/25 06:52:20;;;;;;;0.50;0.50;;;;;;;4.03;100.00;100656.00;5043036;28;20041;-58
2024/01/25 06:54:47;;;;;;;0.60;0.60;;;;;;;3.98;100.00;100650.38;5044201;28;20511;-58
2024/01/25 06:57:14;;;;;;;0.68;0.68;;;;;;;4.00;100.00;100657.19;5044404;28;20045;-58
2024/01/25 06:59:43;;;;;;;0.50;0.50;;;;;;;3.94;100.00;100657.00;5044557;28;20048;-58
2024/01/25 07:02:11;;;;;;;0.55;0.55;;;;;;;3.97;100.00;100657.50;5041701;28;20045;-58
2024/01/25 07:04:40;;;;;;;0.50;0.50;;;;;;;3.88;100.00;100658.50;5044099;28;20053;-58
2024/01/25 07:07:07;;;;;;;0.60;0.60;;;;;;;3.91;100.00;100655.50;5042269;28;20495;-58
2024/01/25 07:09:34;;;;;;;0.55;0.55;;;;;;;3.99;100.00;100654.69;5042325;28;20041;-58
2024/01/25 07:12:01;;;;;;;0.60;0.60;;;;;;;3.91;100.00;100652.84;5020945;28;20045;-58
2024/01/25 07:14:28;;;;;;;0.60;0.60;;;;;;;3.90;100.00;100651.19;5043552;28;20766;-58
2024/01/25 07:16:57;;;;;;;0.60;0.60;;;;;;;3.97;100.00;100657.50;5042894;28;20102;-58
2024/01/25 07:19:24;;;;;;;0.70;0.70;;;;;;;3.98;100.00;100661.81;5041055;28;20136;-58
2024/01/25 07:21:51;;;;;;;0.52;0.52;;;;;;;4.11;100.00;100659.50;5044115;28;20124;-58
2024/01/25 07:24:19;;;;;;;0.65;0.65;;;;;;;4.14;100.00;100653.03;5038235;28;20057;-58
2024/01/25 07:26:46;;;;;;;0.60;0.60;;;;;;;4.14;100.00;100650.38;5043329;28;20048;-58
2024/01/25 07:29:13;;;;;;;0.60;0.60;;;;;;;4.10;100.00;100651.72;5023680;28;20036;-58
2024/01/25 07:31:40;;;;;;;0.60;0.60;;;;;;;4.24;100.00;100647.56;5041744;28;20491;-58
2024/01/25 07:34:08;;;;;;;0.50;0.50;;;;;;;4.24;100.00;100658.16;5042130;28;20568;-59
2024/01/25 07:36:35;;;;;;;0.63;0.63;;;;;;;4.06;100.00;100661.00;5042148;28;20044;-58
2024/01/25 07:43:03;;;;;;;0.50;0.50;;;;;;;4.24;100.00;100668.78;5042790;28;20052;-59
2024/01/25 07:45:32;;;;;;;0.50;0.50;;;;;;;4.27;100.00;100665.81;5041324;28;20595;-59
2024/01/25 07:47:59;;;;;;;0.63;0.63;;;;;;;4.15;100.00;100662.66;5039674;28;20051;-59
2024/01/25 07:50:27;;;;;;;0.60;0.60;;;;;;;4.03;100.00;100661.31;5043372;28;20040;-60
2024/01/25 07:52:55;;;;;;;0.57;0.57;;;;;;;4.10;100.00;100660.50;5021737;28;20055;-59
2024/01/25 07:55:22;;;;;;;0.50;0.50;;;;;;;4.23;100.00;100661.81;5040037;28;20094;-60
2024/01/25 07:57:49;;;;;;;0.60;0.60;;;;;;;4.48;100.00;100663.47;5043088;28;20159;-57
2024/01/25 08:00:17;;;;;;;0.50;0.50;;;;;;;4.25;100.00;100659.84;5043756;28;20103;-59
2024/01/25 08:02:45;;;;;;;0.50;0.50;;;;;;;4.05;100.00;100662.00;5042077;28;20057;-60
2024/01/25 08:05:12;;;;;;;0.60;0.60;;;;;;;4.27;100.00;100655.19;5042916;28;20052;-58
2024/01/25 08:07:41;;;;;;;0.60;0.60;;;;;;;4.29;100.00;100663.81;5025510;28;20560;-58
2024/01/25 08:10:09;;;;;;;0.50;0.50;;;;;;;4.45;100.00;100663.81;5022192;28;20421;-60
2024/01/25 08:12:39;;;;;;;0.68;0.68;;;;;;;4.63;100.00;100652.16;5028161;28;20044;-59
2024/01/25 08:15:07;;;;;;;0.50;0.50;;;;;;;4.75;100.00;100650.81;5007599;28;20036;-60
2024/01/25 08:17:36;;;;;;;0.52;0.52;;;;;;;4.88;100.00;100644.97;5022913;28;20056;-59
2024/01/25 08:20:04;;;;;;;0.52;0.52;;;;;;;5.04;100.00;100644.06;5040640;28;20124;-60
2024/01/25 08:22:31;;;;;;;0.55;0.55;;;;;;;5.48;100.00;100651.53;5022078;28;20124;-60
2024/01/25 08:24:59;;;;;;;0.60;0.60;;;;;;;5.83;100.00;100656.31;5041708;28;20056;-59
2024/01/25 08:27:26;;;;;;;0.50;0.50;;;;;;;6.52;100.00;100659.97;5042400;28;20931;-58
2024/01/25 08:29:54;;;;;;;0.40;0.40;;;;;;;6.41;100.00;100653.22;5041547;28;20141;-59
2024/01/25 08:32:21;;;;;;;0.47;0.47;;;;;;;6.64;100.00;100659.34;5038560;28;20578;-60
2024/01/25 08:34:48;;;;;;;0.60;0.60;;;;;;;6.67;100.00;100661.66;5039689;28;20045;-59
2024/01/25 08:37:15;;;;;;;0.55;0.55;;;;;;;6.96;100.00;100664.50;5042276;28;20076;-59
2024/01/25 08:39:45;;;;;;;0.50;0.50;;;;;;;7.24;99.40;100662.84;5041760;28;20616;-61
2024/01/25 08:42:14;;;;;;;0.30;0.30;;;;;;;7.72;96.13;100665.06;5040547;28;20490;-59
2024/01/25 08:45:00;;;;;;;0.40;0.40;;;;;;;8.40;91.59;100663.69;5039845;28;20526;-59
2024/01/25 08:47:46;;;;;;;0.40;0.40;;;;;;;7.81;93.11;100657.75;5035331;28;20045;-59
2024/01/25 08:50:13;;;;;;;0.40;0.40;;;;;;;7.92;93.55;100663.41;5022127;28;20088;-60
2024/01/25 08:52:41;;;;;;;0.40;0.40;;;;;;;8.28;92.78;100673.19;5040707;28;20049;-59
2024/01/25 08:55:09;;;;;;;0.40;0.40;;;;;;;8.24;91.39;100679.97;5022369;28;20037;-60
2024/01/25 08:57:39;;;;;;;0.47;0.47;;;;;;;8.25;91.00;100672.78;5042316;28;20495;-59
2024/01/25 09:00:10;;;;;;;0.30;0.30;;;;;;;7.95;92.53;100676.38;5023882;28;20127;-60
2024/01/25 09:02:37;;;;;;;0.35;0.35;;;;;;;8.68;89.27;100668.19;5036949;28;20045;-60
2024/01/25 09:05:05;;;;;;;0.30;0.30;;;;;;;9.13;84.93;100675.91;5039406;28;20053;-59
2024/01/25 09:07:32;;;;;;;0.40;0.40;;;;;;;9.00;85.98;100679.31;5041120;28;20068;-59
2024/01/25 09:09:59;;;;;;;0.30;0.30;;;;;;;9.32;84.29;100679.72;5041050;28;20048;-59
2024/01/25 09:12:26;;;;;;;0.22;0.22;;;;;;;9.16;83.67;100679.00;5041125;28;20053;-60
2024/01/25 09:14:55;;;;;;;0.40;0.40;;;;;;;8.41;87.63;100684.06;5042375;28;20068;-60
2024/01/25 09:17:22;;;;;;;0.40;0.40;;;;;;;9.05;87.39;100682.22;5040378;28;20045;-59
2024/01/25 09:19:50;;;;;;;0.30;0.30;;;;;;;9.02;84.96;100679.97;5040731;28;20498;-60
2024/01/25 09:22:19;;;;;;;0.20;0.20;;;;;;;9.32;85.36;100669.00;5039262;28;20056;-60
2024/01/25 09:24:46;;;;;;;0.22;0.22;;;;;;;9.33;82.13;100666.09;5040673;28;20040;-60
2024/01/25 09:27:13;;;;;;;0.20;0.20;;;;;;;8.87;86.32;100660.53;5042597;28;20048;-60
2024/01/25 09:29:40;;;;;;;0.30;0.30;;;;;;;9.19;85.48;100664.41;5037015;28;20052;-58
2024/01/25 09:32:09;;;;;;;0.30;0.30;;;;;;;8.75;87.55;100661.06;5040417;28;20053;-58
2024/01/25 09:34:37;;;;;;;0.25;0.25;;;;;;;9.72;84.30;100670.78;5038560;28;20136;-58
2024/01/25 09:37:04;;;;;;;0.20;0.20;;;;;;;9.76;82.13;100667.69;5019487;28;20053;-59
2024/01/25 09:39:32;;;;;;;0.30;0.30;;;;;;;9.83;80.74;100665.88;5040212;28;20064;-62
2024/01/25 09:41:59;;;;;;;0.28;0.28;;;;;;;9.11;82.00;100660.06;5043147;28;20410;-59
2024/01/25 09:44:26;;;;;;;0.25;0.25;;;;;;;9.42;83.54;100675.63;5040675;28;20053;-59
2024/01/25 09:46:54;;;;;;;0.20;0.20;;;;;;;10.26;79.32;100687.81;5039575;28;20288;-59
2024/01/25 09:49:23;;;;;;;0.28;0.28;;;;;;;10.26;77.98;100697.69;5040265;28;20069;-59
2024/01/25 09:51:51;;;;;;;0.30;0.30;;;;;;;10.46;77.42;100706.63;5038286;28;20450;-59
2024/01/25 09:54:18;;;;;;;0.17;0.17;;;;;;;10.09;76.45;100718.69;5019910;28;20057;-59
2024/01/25 09:56:48;;;;;;;0.30;0.30;;;;;;;9.48;79.31;100715.00;5042137;28;20131;-60
2024/01/25 09:59:15;;;;;;;0.30;0.30;;;;;;;9.21;84.92;100716.69;5042704;28;20449;-59
2024/01/25 10:01:42;;;;;;;0.20;0.20;;;;;;;8.15;90.48;100711.31;5041214;28;20041;-60
2024/01/25 10:04:09;;;;;;;0.30;0.30;;;;;;;8.76;93.07;100707.31;5042284;28;20126;-59
2024/01/25 10:06:37;;;;;;;0.30;0.30;;;;;;;9.22;89.19;100706.81;5045483;28;20037;-59
2024/01/25 10:09:05;;;;;;;0.30;0.30;;;;;;;9.06;89.11;100697.25;5045954;28;20252;-60
2024/01/25 10:11:35;;;;;;;0.30;0.30;;;;;;;9.26;88.76;100692.84;5044830;28;20098;-60
2024/01/25 10:14:03;;;;;;;0.30;0.30;;;;;;;8.84;91.62;100691.97;5044739;28;20048;-59
2024/01/25 10:16:30;;;;;;;0.30;0.30;;;;;;;8.97;90.93;100687.75;5044381;28;20037;-59
2024/01/25 10:18:57;;;;;;;0.30;0.30;;;;;;;9.14;87.46;100691.75;5044387;28;20044;-59
2024/01/25 10:21:24;;;;;;;0.35;0.35;;;;;;;9.26;84.93;100692.00;5043390;28;20085;-60
2024/01/25 10:23:54;;;;;;;0.30;0.30;;;;;;;9.58;82.57;100692.38;5046576;28;20123;-61
2024/01/25 10:26:21;;;;;;;0.38;0.38;;;;;;;9.63;81.52;100700.63;5046427;28;20041;-59
2024/01/25 10:28:53;;;;;;;0.30;0.30;;;;;;;9.78;78.72;100711.19;5045634;28;20065;-59
2024/01/25 10:31:20;;;;;;;0.30;0.30;;;;;;;10.05;79.30;100707.53;5025457;28;20124;-59
2024/01/25 10:33:47;;;;;;;0.30;0.30;;;;;;;10.72;76.83;100710.31;5042665;28;20445;-58
2024/01/25 10:36:15;;;;;;;0.35;0.35;;;;;;;10.62;78.88;100707.22;5043932;28;20053;-59
2024/01/25 10:38:42;;;;;;;0.20;0.20;;;;;;;10.61;78.09;100701.06;5030608;28;20149;-59
2024/01/25 10:41:10;;;;;;;0.20;0.20;;;;;;;10.34;78.65;100695.66;5044844;28;20450;-59
2024/01/25 10:43:37;;;;;;;0.30;0.30;;;;;;;10.74;80.83;100694.84;5043223;28;20048;-59
2024/01/25 10:46:05;;;;;;;0.30;0.30;;;;;;;10.94;78.64;100695.66;5039811;28;20561;-59
2024/01/25 10:48:32;;;;;;;0.20;0.20;;;;;;;10.68;80.92;100701.03;5042358;28;21691;-59
2024/01/25 10:51:02;;;;;;;0.20;0.20;;;;;;;10.37;83.53;100705.16;5017743;28;20523;-59
2024/01/25 10:53:29;;;;;;;;;;;;;;;9.96;88.00;100692.72;5042621;28;20041;-59
2024/01/25 10:55:56;;;;;;;0.20;0.20;;;;;;;9.75;88.65;100693.66;5025244;28;19924;-58
2024/01/25 10:58:25;;;;;;;0.30;0.30;;;;;;;10.22;85.35;100683.88;5043660;28;20450;-59
2024/01/25 11:00:53;;;;;;;0.20;0.20;;;;;;;10.75;82.51;100683.06;5043277;28;20243;-58
2024/01/25 11:03:20;;;;;;;0.20;0.20;;;;;;;10.80;81.59;100677.91;5023678;28;20053;-60
2024/01/25 11:05:48;;;;;;;0.30;0.30;;;;;;;10.63;82.62;100672.16;5041933;28;20111;-59
2024/01/25 11:08:19;;;;;;;0.20;0.20;;;;;;;10.74;81.07;100673.41;5044748;28;20431;-60
2024/01/25 11:10:49;;;;;;;0.22;0.22;;;;;;;9.99;84.19;100665.50;5043290;28;20239;-57
2024/01/25 11:13:17;;;;;;;0.30;0.30;;;;;;;10.64;84.55;100646.19;5041399;28;20036;-59
2024/01/25 11:15:46;;;;;;;0.22;0.22;;;;;;;9.99;86.93;100649.44;5041784;28;20041;-59
2024/01/25 11:18:13;;;;;;;0.20;0.20;;;;;;;9.97;86.35;100648.81;5043474;28;20439;-59
2024/01/25 11:20:41;;;;;;;0.30;0.30;;;;;;;9.80;86.88;100652.91;5042879;28;20055;-59
2024/01/25 11:23:08;;;;;;;0.22;0.22;;;;;;;10.43;85.08;100660.63;5044203;28;20566;-59
2024/01/25 11:25:36;;;;;;;0.30;0.30;;;;;;;10.36;86.00;100655.28;5040651;28;20073;-59
2024/01/25 11:28:04;;;;;;;0.20;0.20;;;;;;;10.94;83.04;100647.34;5043893;28;20045;-57
2024/01/25 11:30:33;;;;;;;0.30;0.30;;;;;;;9.31;90.35;100624.53;5024979;28;20593;-57
2024/01/25 11:33:02;;;;;;;0.30;0.30;;;;;;;10.02;87.81;100622.22;5026239;28;20080;-57